Time;durP1;ratioP1;P1;durP2;ratioP2;P2;SDS_P1;SDS_P2;PMS_P1;PMS_P2;Temp;Humidity;BMP_temperature;BMP_pressure;BME280_temperature;BME280_humidity;BME280_pressure;Samples;Min_cycle;Max_cycle;Signal;HPM_P1;HPM_P2
2022/11/26 00:01:42;;;;;;;7.55;2.58;;;;;;;5.33;100.00;99599.28;4126298;28;20245;-49
2022/11/26 00:03:45;;;;;;;3.47;2.13;;;;;;;5.18;100.00;99601.19;4124235;28;20217;-49
2022/11/26 00:05:51;;;;;;;2.15;1.83;;;;;;;5.18;100.00;99605.75;4140487;28;20213;-48
2022/11/26 00:07:54;;;;;;;4.95;2.75;;;;;;;5.21;100.00;99605.38;4103555;28;20230;-48
2022/11/26 00:09:57;;;;;;;3.05;2.63;;;;;;;5.30;100.00;99599.66;4138042;28;20221;-48
2022/11/26 00:11:59;;;;;;;12.40;2.90;;;;;;;5.30;100.00;99606.97;4125359;28;20241;-49
2022/11/26 00:14:01;;;;;;;4.65;2.53;;;;;;;5.14;100.00;99604.44;4125859;28;20261;-49
2022/11/26 00:16:03;;;;;;;4.20;3.78;;;;;;;5.18;100.00;99619.31;4126757;28;20241;-48
2022/11/26 00:18:05;;;;;;;5.15;2.90;;;;;;;5.31;100.00;99623.06;4126201;28;20252;-49
2022/11/26 00:20:07;;;;;;;6.18;4.32;;;;;;;5.08;100.00;99610.63;4127441;28;20275;-49
2022/11/26 00:22:25;;;;;;;4.50;2.78;;;;;;;5.16;100.00;99624.13;4121953;28;20394;-49
2022/11/26 00:24:27;;;;;;;4.63;3.08;;;;;;;4.94;100.00;99627.75;4132156;28;20240;-49
2022/11/26 00:26:29;;;;;;;3.95;3.65;;;;;;;5.07;100.00;99628.78;4137330;28;20240;-48
2022/11/26 00:28:32;;;;;;;2.20;2.00;;;;;;;5.08;100.00;99626.91;4138623;28;20321;-48
2022/11/26 00:30:33;;;;;;;2.08;1.80;;;;;;;4.99;100.00;99629.94;4120259;28;20214;-50
2022/11/26 00:32:35;;;;;;;3.80;2.95;;;;;;;4.91;100.00;99630.00;4123266;28;20289;-48
2022/11/26 00:34:37;;;;;;;4.75;2.83;;;;;;;4.91;100.00;99641.69;4129515;28;20230;-48
2022/11/26 00:36:41;;;;;;;4.18;3.03;;;;;;;4.94;100.00;99640.47;4111015;28;20210;-50
2022/11/26 00:38:44;;;;;;;3.28;2.40;;;;;;;4.85;100.00;99641.59;4123078;28;20301;-51
2022/11/26 00:40:46;;;;;;;3.78;2.72;;;;;;;4.81;100.00;99646.53;4122013;28;20267;-47
2022/11/26 00:42:48;;;;;;;3.10;2.83;;;;;;;4.83;100.00;99647.22;4125353;28;20321;-49
2022/11/26 00:44:50;;;;;;;2.22;2.00;;;;;;;4.79;100.00;99648.59;4124640;28;20678;-48
2022/11/26 00:46:52;;;;;;;3.20;3.00;;;;;;;4.72;100.00;99641.38;4123179;28;20231;-49
2022/11/26 00:48:54;;;;;;;2.92;2.72;;;;;;;4.76;100.00;99661.69;4125951;28;20228;-49
2022/11/26 00:50:55;;;;;;;3.78;2.42;;;;;;;4.80;100.00;99657.59;4111666;28;20215;-48
2022/11/26 00:52:57;;;;;;;5.13;2.47;;;;;;;4.78;100.00;99665.91;4138941;28;20693;-49
2022/11/26 00:55:02;;;;;;;10.68;2.22;;;;;;;4.71;100.00;99662.25;4111084;28;20710;-49
2022/11/26 00:57:04;;;;;;;5.50;2.50;;;;;;;4.64;100.00;99666.72;4125928;28;20214;-49
2022/11/26 00:59:08;;;;;;;6.20;2.15;;;;;;;4.55;100.00;99667.00;4136971;28;20731;-48
2022/11/26 01:01:12;;;;;;;4.85;3.00;;;;;;;4.62;100.00;99674.22;4104330;28;20215;-49
2022/11/26 01:03:14;;;;;;;5.82;3.03;;;;;;;4.52;100.00;99679.03;4138515;28;20229;-48
2022/11/26 01:05:16;;;;;;;2.88;2.20;;;;;;;4.47;100.00;99681.44;4123825;28;20325;-48
2022/11/26 01:07:18;;;;;;;5.75;2.88;;;;;;;4.49;100.00;99695.66;4132327;28;20730;-47
2022/11/26 01:09:20;;;;;;;6.18;3.25;;;;;;;4.50;100.00;99700.06;4123168;28;20710;-48
2022/11/26 01:11:22;;;;;;;3.75;3.10;;;;;;;4.55;100.00;99692.22;4099449;28;20295;-47
2022/11/26 01:13:25;;;;;;;4.40;3.10;;;;;;;4.45;100.00;99705.19;4125904;28;20726;-48
2022/11/26 01:15:27;;;;;;;2.85;2.65;;;;;;;4.52;100.00;99706.13;4127469;28;20307;-48
2022/11/26 01:17:29;;;;;;;4.70;3.25;;;;;;;4.50;100.00;99708.19;4123775;28;20305;-49
2022/11/26 01:19:31;;;;;;;4.20;3.80;;;;;;;4.57;100.00;99720.00;4116408;28;20252;-49
2022/11/26 01:21:33;;;;;;;3.10;2.80;;;;;;;4.52;100.00;99716.97;4123728;28;20241;-49
2022/11/26 01:23:38;;;;;;;2.88;2.03;;;;;;;4.55;100.00;99722.03;4108199;28;20334;-49
2022/11/26 01:25:40;;;;;;;2.17;1.63;;;;;;;4.59;100.00;99728.78;4136770;28;20237;-49
2022/11/26 01:27:42;;;;;;;3.85;3.20;;;;;;;4.55;100.00;99722.03;4135590;28;20716;-48
2022/11/26 01:29:44;;;;;;;5.43;3.35;;;;;;;4.68;100.00;99727.66;4119802;28;20306;-50
2022/11/26 01:31:46;;;;;;;3.10;2.80;;;;;;;4.60;100.00;99730.44;4124600;28;20284;-48
2022/11/26 01:33:48;;;;;;;3.13;2.50;;;;;;;4.69;100.00;99729.38;4124815;28;20206;-49
2022/11/26 01:35:51;;;;;;;6.53;4.75;;;;;;;4.67;100.00;99734.09;4121010;28;20298;-50
2022/11/26 01:37:53;;;;;;;11.02;4.07;;;;;;;4.69;100.00;99740.22;4121787;28;20253;-49
2022/11/26 01:39:55;;;;;;;16.40;4.15;;;;;;;4.57;100.00;99747.09;4137386;28;20209;-49
2022/11/26 01:42:38;;;;;;;10.30;4.50;;;;;;;4.70;100.00;99751.88;4106219;28;20298;-48
2022/11/26 01:44:40;;;;;;;5.22;3.33;;;;;;;4.60;100.00;99757.56;4138238;28;20264;-48
2022/11/26 01:46:42;;;;;;;11.85;5.13;;;;;;;4.66;100.00;99745.97;4138482;28;20208;-47
2022/11/26 01:48:44;;;;;;;13.80;5.10;;;;;;;4.69;100.00;99756.47;4099314;28;20216;-49
2022/11/26 01:50:52;;;;;;;11.15;4.63;;;;;;;4.74;100.00;99754.03;4115946;28;20656;-48
2022/11/26 01:53:05;;;;;;;6.40;4.25;;;;;;;4.71;100.00;99740.88;4124929;28;20241;-48
2022/11/26 01:55:13;;;;;;;15.05;4.63;;;;;;;4.68;100.00;99745.81;4128299;28;20328;-48
2022/11/26 01:57:19;;;;;;;8.43;4.72;;;;;;;4.73;100.00;99744.22;4126505;28;20657;-48
2022/11/26 01:59:29;;;;;;;7.72;4.82;;;;;;;4.80;100.00;99747.88;4119714;28;20292;-49
2022/11/26 02:01:31;;;;;;;9.82;4.65;;;;;;;4.67;100.00;99741.41;4110024;28;20206;-48
2022/11/26 02:03:46;;;;;;;8.85;3.47;;;;;;;4.59;100.00;99745.03;4125479;28;20225;-48
2022/11/26 02:05:56;;;;;;;5.05;4.65;;;;;;;4.70;100.00;99752.75;4122826;28;20226;-49
2022/11/26 02:07:58;;;;;;;6.97;4.32;;;;;;;4.65;100.00;99749.72;4119740;28;20276;-49
2022/11/26 02:10:00;;;;;;;4.45;4.05;;;;;;;4.79;100.00;99754.34;4121905;28;20696;-50
2022/11/26 02:12:02;;;;;;;5.55;3.72;;;;;;;4.59;100.00;99755.88;4123268;28;20210;-49
2022/11/26 02:14:16;;;;;;;6.10;5.00;;;;;;;4.64;100.00;99758.88;4124928;28;20277;-48
2022/11/26 02:16:39;;;;;;;5.28;4.72;;;;;;;4.55;100.00;99760.00;4138922;28;20665;-50
2022/11/26 02:18:47;;;;;;;4.18;3.78;;;;;;;4.53;100.00;99753.88;4119103;28;20210;-49
2022/11/26 02:20:49;;;;;;;9.23;4.50;;;;;;;4.49;100.00;99760.72;4125092;28;20220;-49
2022/11/26 02:23:11;;;;;;;4.82;4.32;;;;;;;4.48;100.00;99753.56;4124611;28;20260;-47
2022/11/26 02:25:13;;;;;;;4.03;3.72;;;;;;;4.62;100.00;99765.50;4115163;28;20772;-49
2022/11/26 02:27:47;;;;;;;6.80;4.88;;;;;;;4.43;100.00;99760.56;4117685;28;20229;-49
2022/11/26 02:30:08;;;;;;;4.18;3.53;;;;;;;4.31;100.00;99772.84;4111464;28;20301;-49
2022/11/26 02:32:17;;;;;;;7.32;3.75;;;;;;;4.24;100.00;99772.75;4123748;28;20233;-50
2022/11/26 02:34:44;;;;;;;5.80;4.13;;;;;;;4.25;100.00;99768.16;4119421;28;20312;-47
2022/11/26 02:36:51;;;;;;;4.57;3.58;;;;;;;4.26;100.00;99776.09;4123835;28;20242;-47
2022/11/26 02:38:53;;;;;;;5.20;4.13;;;;;;;4.18;100.00;99765.31;4137172;28;20733;-48
2022/11/26 02:40:55;;;;;;;3.30;3.05;;;;;;;4.24;100.00;99772.75;4107690;28;20301;-49
2022/11/26 02:42:57;;;;;;;4.00;3.63;;;;;;;4.24;100.00;99770.03;4105968;28;20326;-49
2022/11/26 02:45:07;;;;;;;4.35;3.17;;;;;;;4.16;100.00;99775.50;4120159;28;20246;-49
2022/11/26 02:47:14;;;;;;;3.42;3.15;;;;;;;4.11;100.00;99777.91;4125493;28;20234;-48
2022/11/26 02:49:19;;;;;;;4.25;3.63;;;;;;;4.08;100.00;99772.81;4139390;28;20209;-49
2022/11/26 02:51:24;;;;;;;5.05;3.53;;;;;;;4.00;100.00;99770.16;4106474;28;20254;-49
2022/11/26 02:53:31;;;;;;;4.22;3.85;;;;;;;4.10;100.00;99768.09;4123983;28;20194;-48
2022/11/26 02:55:37;;;;;;;4.65;3.17;;;;;;;4.05;100.00;99766.91;4122188;28;20268;-50
2022/11/26 02:57:48;;;;;;;2.88;2.58;;;;;;;4.04;100.00;99766.09;4107419;28;20277;-49
2022/11/26 02:59:50;;;;;;;4.15;3.80;;;;;;;3.99;100.00;99768.47;4136267;28;20664;-48
2022/11/26 03:02:15;;;;;;;3.78;3.38;;;;;;;3.95;100.00;99772.56;4137141;28;20705;-47
2022/11/26 03:04:24;;;;;;;2.97;2.63;;;;;;;3.95;100.00;99772.56;4121230;28;20237;-47
2022/11/26 03:06:29;;;;;;;4.35;3.00;;;;;;;3.96;100.00;99774.28;4133419;28;20220;-47
2022/11/26 03:08:32;;;;;;;3.58;2.55;;;;;;;3.93;100.00;99777.31;4126150;28;20301;-47
2022/11/26 03:10:33;;;;;;;3.50;3.17;;;;;;;3.92;100.00;99772.91;4120818;28;20735;-48
2022/11/26 03:12:35;;;;;;;3.65;3.35;;;;;;;3.84;100.00;99782.94;4107115;28;20238;-47
2022/11/26 03:14:37;;;;;;;3.35;3.05;;;;;;;3.76;100.00;99783.84;4106641;28;20230;-48
2022/11/26 03:16:39;;;;;;;4.05;3.40;;;;;;;3.73;100.00;99778.75;4120942;28;20227;-48
2022/11/26 03:18:41;;;;;;;4.18;3.72;;;;;;;3.73;100.00;99784.19;4104410;28;20281;-47
2022/11/26 03:20:43;;;;;;;3.25;2.95;;;;;;;3.73;100.00;99781.47;4122117;28;20295;-48
2022/11/26 03:22:45;;;;;;;4.80;3.58;;;;;;;3.81;100.00;99781.44;4135260;28;20234;-48
2022/11/26 03:24:46;;;;;;;3.58;3.28;;;;;;;3.79;100.00;99778.06;4122908;28;20261;-47
2022/11/26 03:26:48;;;;;;;3.88;3.58;;;;;;;3.84;100.00;99770.25;4121093;28;20304;-49
2022/11/26 03:28:50;;;;;;;3.40;3.08;;;;;;;3.69;100.00;99771.19;4104475;28;20286;-49
2022/11/26 03:30:52;;;;;;;3.80;3.47;;;;;;;3.77;100.00;99766.56;4123350;28;20212;-49
2022/11/26 03:32:53;;;;;;;3.38;3.08;;;;;;;3.68;100.00;99770.31;4120651;28;20661;-48
2022/11/26 03:34:55;;;;;;;3.70;2.92;;;;;;;3.57;100.00;99762.59;4120918;28;20579;-47
2022/11/26 03:36:57;;;;;;;3.72;2.90;;;;;;;3.59;100.00;99755.16;4118836;28;20249;-50
2022/11/26 03:38:59;;;;;;;5.65;3.13;;;;;;;3.57;100.00;99757.19;4135576;28;20683;-50
2022/11/26 03:41:02;;;;;;;5.63;2.88;;;;;;;3.45;100.00;99758.59;4135946;28;20238;-49
2022/11/26 03:43:04;;;;;;;4.25;3.63;;;;;;;3.46;100.00;99762.97;4103333;28;20756;-49
2022/11/26 03:45:06;;;;;;;4.05;3.63;;;;;;;3.50;100.00;99758.91;4135542;28;20355;-47
2022/11/26 03:47:08;;;;;;;4.00;3.55;;;;;;;3.44;100.00;99756.06;4127195;28;20214;-48
2022/11/26 03:49:10;;;;;;;5.57;4.03;;;;;;;3.34;100.00;99766.25;4118031;28;20256;-49
2022/11/26 03:51:12;;;;;;;3.47;3.17;;;;;;;3.31;100.00;99769.28;4098356;28;20861;-49
2022/11/26 03:53:13;;;;;;;5.55;4.75;;;;;;;3.34;100.00;99766.25;4122348;28;20265;-47
2022/11/26 03:55:15;;;;;;;5.32;4.65;;;;;;;3.43;100.00;99763.34;4106703;28;20395;-49
2022/11/26 03:57:17;;;;;;;5.15;4.38;;;;;;;3.32;100.00;99761.00;4122839;28;20205;-48
2022/11/26 03:59:19;;;;;;;5.47;4.93;;;;;;;3.24;100.00;99771.00;4107008;28;20232;-48
2022/11/26 04:01:21;;;;;;;5.13;4.15;;;;;;;3.20;100.00;99773.19;4121232;28;20677;-48
2022/11/26 04:03:22;;;;;;;5.78;5.28;;;;;;;3.18;100.00;99777.09;4119497;28;20244;-49
2022/11/26 04:05:24;;;;;;;5.38;4.88;;;;;;;3.18;100.00;99780.66;4116536;28;20234;-49
2022/11/26 04:07:26;;;;;;;6.05;5.07;;;;;;;3.18;100.00;99780.66;4121819;28;20264;-48
2022/11/26 04:09:28;;;;;;;5.30;4.80;;;;;;;3.15;100.00;99782.84;4133885;28;20702;-49
2022/11/26 04:11:30;;;;;;;7.00;6.40;;;;;;;3.20;100.00;99778.59;4121189;28;20222;-48
2022/11/26 04:13:31;;;;;;;6.38;5.25;;;;;;;3.25;100.00;99788.91;4106643;28;20720;-47
2022/11/26 04:15:33;;;;;;;5.00;4.57;;;;;;;3.09;100.00;99789.81;4119951;28;20316;-48
2022/11/26 04:17:35;;;;;;;5.13;3.72;;;;;;;3.03;100.00;99795.91;4135539;28;20661;-48
2022/11/26 04:19:37;;;;;;;4.55;3.38;;;;;;;3.08;100.00;99793.50;4134505;28;20297;-48
2022/11/26 04:21:39;;;;;;;5.47;4.07;;;;;;;3.19;100.00;99785.03;4120503;28;20229;-48
2022/11/26 04:23:41;;;;;;;3.80;3.47;;;;;;;3.19;100.00;99790.44;4120011;28;20257;-48
2022/11/26 04:25:42;;;;;;;4.40;3.65;;;;;;;3.22;100.00;99783.84;4120544;28;20210;-48
2022/11/26 04:27:44;;;;;;;4.50;4.13;;;;;;;3.11;100.00;99782.34;4124722;28;20612;-48
2022/11/26 04:29:46;;;;;;;5.82;4.90;;;;;;;3.05;100.00;99788.44;4118297;28;20317;-47
2022/11/26 04:31:47;;;;;;;6.38;5.63;;;;;;;3.10;100.00;99793.34;4106359;28;20302;-49
2022/11/26 04:33:49;;;;;;;6.85;6.25;;;;;;;2.97;100.00;99791.16;4121192;28;20230;-48
2022/11/26 04:35:52;;;;;;;5.18;4.68;;;;;;;2.93;100.00;99795.22;4118532;28;20208;-50
2022/11/26 04:37:54;;;;;;;6.10;5.55;;;;;;;2.88;100.00;99794.88;4123182;28;20673;-48
2022/11/26 04:39:55;;;;;;;9.40;5.32;;;;;;;2.86;100.00;99810.44;4114517;28;20297;-49
2022/11/26 04:41:57;;;;;;;5.53;4.97;;;;;;;2.93;100.00;99805.19;4119280;28;20226;-49
2022/11/26 04:43:59;;;;;;;6.80;4.40;;;;;;;2.85;100.00;99806.03;4121919;28;20320;-49
2022/11/26 04:46:01;;;;;;;5.97;5.47;;;;;;;2.90;100.00;99819.03;4123801;28;20715;-48
2022/11/26 04:48:03;;;;;;;6.57;4.20;;;;;;;2.88;100.00;99816.50;4128170;28;20297;-48
2022/11/26 04:50:05;;;;;;;4.18;3.72;;;;;;;2.83;100.00;99821.59;4121706;28;20297;-48
2022/11/26 04:52:07;;;;;;;4.82;3.80;;;;;;;2.83;100.00;99827.00;4139683;28;20217;-48
2022/11/26 04:54:08;;;;;;;4.03;3.15;;;;;;;2.84;100.00;99823.28;4124072;28;20356;-48
2022/11/26 04:56:13;;;;;;;3.30;3.00;;;;;;;2.78;100.00;99833.91;4106559;28;20215;-48
2022/11/26 04:58:19;;;;;;;3.97;3.67;;;;;;;2.84;100.00;99831.38;4123051;28;20249;-48
2022/11/26 05:00:21;;;;;;;4.05;3.75;;;;;;;2.82;100.00;99840.66;4139715;28;20285;-48
2022/11/26 05:02:23;;;;;;;4.97;4.10;;;;;;;2.85;100.00;99841.19;4124378;28;20697;-48
2022/11/26 05:04:28;;;;;;;6.10;4.40;;;;;;;2.93;100.00;99846.56;4121043;28;20245;-48
2022/11/26 05:06:29;;;;;;;6.00;5.40;;;;;;;2.79;100.00;99847.25;4123398;28;20242;-49
2022/11/26 05:08:31;;;;;;;5.95;4.70;;;;;;;2.76;100.00;99854.84;4122780;28;20226;-48
2022/11/26 05:10:33;;;;;;;4.35;3.88;;;;;;;2.75;100.00;99863.97;4124119;28;23995;-47
2022/11/26 05:12:35;;;;;;;4.75;4.35;;;;;;;2.78;100.00;99869.88;4126917;28;20237;-48
2022/11/26 05:14:37;;;;;;;3.40;2.60;;;;;;;2.75;100.00;99878.31;4128113;28;20265;-48
2022/11/26 05:16:39;;;;;;;3.33;3.10;;;;;;;2.70;100.00;99880.69;4110683;28;20242;-48
2022/11/26 05:18:41;;;;;;;3.75;2.60;;;;;;;2.69;100.00;99884.41;4121001;28;20210;-49
2022/11/26 05:20:43;;;;;;;3.83;3.38;;;;;;;2.71;100.00;99882.38;4122789;28;20609;-48
2022/11/26 05:22:45;;;;;;;3.88;3.45;;;;;;;2.74;100.00;99887.44;4108078;28;20811;-48
2022/11/26 05:24:47;;;;;;;3.20;3.00;;;;;;;2.83;100.00;99886.47;4123271;28;21992;-47
2022/11/26 05:26:48;;;;;;;4.68;3.90;;;;;;;2.86;100.00;99894.22;4125341;28;20297;-48
2022/11/26 05:28:57;;;;;;;2.88;2.67;;;;;;;2.83;100.00;99891.88;4125814;28;20699;-48
2022/11/26 05:31:03;;;;;;;3.92;3.53;;;;;;;2.87;100.00;99893.19;4122621;28;20234;-49
2022/11/26 05:33:04;;;;;;;3.80;3.25;;;;;;;2.78;100.00;99899.63;4117697;28;20309;-49
2022/11/26 05:35:06;;;;;;;3.60;3.33;;;;;;;2.84;100.00;99903.50;4139378;28;20784;-47
2022/11/26 05:37:08;;;;;;;4.45;3.38;;;;;;;2.79;100.00;99906.72;4125312;28;20305;-49
2022/11/26 05:39:10;;;;;;;5.43;3.65;;;;;;;2.83;100.00;99912.63;4138213;28;20233;-47
2022/11/26 05:41:12;;;;;;;3.88;3.58;;;;;;;2.86;100.00;99917.72;4123991;28;20214;-49
2022/11/26 05:43:13;;;;;;;3.83;3.53;;;;;;;2.94;100.00;99923.94;4123816;28;20213;-48
2022/11/26 05:45:15;;;;;;;4.07;3.78;;;;;;;2.94;100.00;99932.06;4122550;28;20237;-50
2022/11/26 05:47:17;;;;;;;3.17;2.97;;;;;;;2.80;100.00;99934.59;4119799;28;20211;-49
2022/11/26 05:49:19;;;;;;;4.35;3.47;;;;;;;2.83;100.00;99924.28;4120551;28;20242;-49
2022/11/26 05:51:21;;;;;;;6.35;3.78;;;;;;;2.67;100.00;99934.22;4125338;28;20202;-49
2022/11/26 05:53:22;;;;;;;3.75;3.25;;;;;;;2.65;100.00;99928.97;4121717;28;20301;-49
2022/11/26 05:55:24;;;;;;;3.60;3.33;;;;;;;2.71;100.00;99922.91;4120599;28;20249;-48
2022/11/26 05:57:26;;;;;;;4.28;3.97;;;;;;;2.76;100.00;99928.69;4123802;28;20245;-48
2022/11/26 05:59:28;;;;;;;4.10;3.75;;;;;;;2.83;100.00;99921.59;4122681;28;20241;-49
2022/11/26 06:01:30;;;;;;;4.72;4.30;;;;;;;2.60;100.00;99928.63;4111912;28;20466;-49
2022/11/26 06:03:32;;;;;;;4.95;3.33;;;;;;;2.70;100.00;99929.34;4122267;28;20265;-48
2022/11/26 06:05:33;;;;;;;5.32;3.33;;;;;;;2.76;100.00;99931.38;4122077;28;20234;-49
2022/11/26 06:07:35;;;;;;;8.88;3.75;;;;;;;2.75;100.00;99931.53;4120083;28;20717;-49
2022/11/26 06:09:43;;;;;;;6.88;5.18;;;;;;;2.76;100.00;99928.69;4118621;28;20431;-49
2022/11/26 06:11:48;;;;;;;4.55;4.13;;;;;;;2.84;100.00;99925.97;4138845;28;20237;-50
2022/11/26 06:13:50;;;;;;;9.38;4.00;;;;;;;2.85;100.00;99922.25;4116661;28;20294;-48
2022/11/26 06:15:52;;;;;;;4.90;4.03;;;;;;;2.99;100.00;99929.72;4120244;28;20249;-48
2022/11/26 06:17:53;;;;;;;3.42;3.13;;;;;;;2.82;100.00;99927.16;4105567;28;20238;-48
2022/11/26 06:19:55;;;;;;;5.38;4.03;;;;;;;2.73;100.00;99926.28;4120591;28;20324;-47
2022/11/26 06:21:57;;;;;;;9.13;4.90;;;;;;;2.83;100.00;99918.88;4104578;28;20349;-49
2022/11/26 06:23:59;;;;;;;5.63;4.25;;;;;;;2.85;100.00;99924.97;4123868;28;20245;-48
2022/11/26 06:26:00;;;;;;;6.43;4.43;;;;;;;2.91;100.00;99918.91;4109021;28;20290;-49
2022/11/26 06:28:02;;;;;;;4.90;4.45;;;;;;;2.94;100.00;99925.81;4120680;28;20261;-49
2022/11/26 06:30:06;;;;;;;8.75;4.10;;;;;;;2.97;100.00;99926.34;4121069;28;20743;-49
2022/11/26 06:32:08;;;;;;;5.50;4.10;;;;;;;3.02;100.00;99929.34;4119804;28;20237;-50
2022/11/26 06:34:10;;;;;;;7.22;4.75;;;;;;;3.09;100.00;99930.41;4121049;28;20226;-49
2022/11/26 06:36:11;;;;;;;8.98;4.55;;;;;;;3.11;100.00;99931.06;4122695;28;20674;-50
2022/11/26 06:38:13;;;;;;;4.95;4.03;;;;;;;3.13;100.00;99934.44;4123838;28;20308;-48
2022/11/26 06:40:17;;;;;;;9.85;4.28;;;;;;;3.14;100.00;99933.44;4107571;28;20211;-49
2022/11/26 06:42:19;;;;;;;5.53;4.88;;;;;;;3.16;100.00;99931.41;4104247;28;20307;-48
2022/11/26 06:44:21;;;;;;;11.75;3.97;;;;;;;3.25;100.00;99924.13;4123036;28;20742;-48
2022/11/26 06:46:23;;;;;;;7.82;4.43;;;;;;;3.23;100.00;99935.13;4125928;28;20289;-49
2022/11/26 06:48:24;;;;;;;4.60;4.20;;;;;;;3.29;100.00;99948.00;4110398;28;20235;-49
2022/11/26 06:50:26;;;;;;;5.57;4.15;;;;;;;3.31;100.00;99940.53;4123439;28;20305;-49
2022/11/26 06:52:28;;;;;;;7.43;4.13;;;;;;;3.33;100.00;99946.63;4121068;28;20214;-50
2022/11/26 06:54:30;;;;;;;6.75;4.00;;;;;;;3.38;100.00;99946.97;4115489;28;20815;-49
2022/11/26 06:56:34;;;;;;;6.68;4.55;;;;;;;3.45;100.00;99953.38;4122229;28;20247;-49
2022/11/26 06:58:36;;;;;;;8.10;4.18;;;;;;;3.46;100.00;99960.47;4119823;28;20619;-49
2022/11/26 07:00:38;;;;;;;6.10;4.65;;;;;;;3.45;100.00;99953.38;4105932;28;20254;-50
2022/11/26 07:02:40;;;;;;;5.93;4.90;;;;;;;3.57;100.00;99964.69;4120069;28;20260;-48
2022/11/26 07:04:42;;;;;;;6.53;5.68;;;;;;;3.56;100.00;99960.31;4122009;28;20293;-48
2022/11/26 07:06:44;;;;;;;10.02;5.50;;;;;;;3.59;100.00;99959.94;4108691;28;20298;-49
2022/11/26 07:08:47;;;;;;;14.38;6.03;;;;;;;3.57;100.00;99968.25;4122745;28;20210;-48
2022/11/26 07:10:49;;;;;;;9.20;4.80;;;;;;;3.72;100.00;99971.97;4112309;28;20221;-48
2022/11/26 07:12:50;;;;;;;7.00;5.43;;;;;;;3.51;100.00;99968.94;4135308;28;20224;-50
2022/11/26 07:14:52;;;;;;;10.55;5.53;;;;;;;3.49;100.00;99981.81;4117309;28;20265;-49
2022/11/26 07:16:54;;;;;;;10.85;5.57;;;;;;;3.60;100.00;99967.09;4118090;28;20241;-49
2022/11/26 07:18:57;;;;;;;7.53;5.72;;;;;;;3.62;100.00;99974.03;4107543;28;20644;-50
2022/11/26 07:21:08;;;;;;;7.03;5.35;;;;;;;3.53;100.00;99964.19;4113104;28;20210;-49
2022/11/26 07:23:10;;;;;;;7.05;4.65;;;;;;;3.65;100.00;99968.25;4118906;28;20328;-49
2022/11/26 07:25:12;;;;;;;6.63;5.97;;;;;;;3.55;100.00;99972.97;4118058;28;20890;-49
2022/11/26 07:27:13;;;;;;;8.73;5.40;;;;;;;3.57;100.00;99972.81;4134999;28;20292;-51
2022/11/26 07:29:15;;;;;;;14.52;6.43;;;;;;;3.59;100.00;99974.34;4119150;28;20242;-49
2022/11/26 07:31:19;;;;;;;9.65;7.10;;;;;;;3.62;100.00;99974.03;4119408;28;20232;-49
2022/11/26 07:33:21;;;;;;;8.07;5.90;;;;;;;3.66;100.00;99978.06;4119239;28;20210;-48
2022/11/26 07:35:23;;;;;;;12.82;6.78;;;;;;;3.87;100.00;99989.19;4104888;28;20317;-48
2022/11/26 07:37:25;;;;;;;7.18;6.40;;;;;;;3.80;100.00;99985.47;4121902;28;20235;-49
2022/11/26 07:39:26;;;;;;;13.68;6.25;;;;;;;3.84;100.00;99991.41;4125551;28;20740;-48
2022/11/26 07:41:29;;;;;;;10.25;5.85;;;;;;;3.84;100.00;99989.53;4124179;28;20304;-49
2022/11/26 07:43:39;;;;;;;10.38;5.72;;;;;;;3.85;100.00;99993.94;4124048;28;20238;-48
2022/11/26 07:45:41;;;;;;;10.60;7.22;;;;;;;3.94;100.00;99998.31;4119470;28;20596;-48
2022/11/26 07:47:43;;;;;;;10.77;7.55;;;;;;;3.93;100.00;100007.47;4122558;28;20233;-49
2022/11/26 07:49:45;;;;;;;9.05;7.53;;;;;;;4.01;100.00;100015.56;4107956;28;20731;-49
2022/11/26 07:51:47;;;;;;;10.02;8.65;;;;;;;4.07;100.00;100025.72;4091858;28;20212;-48
2022/11/26 07:53:50;;;;;;;15.70;6.53;;;;;;;4.12;100.00;100017.94;4121880;28;20206;-49
2022/11/26 07:55:53;;;;;;;9.30;6.25;;;;;;;4.12;100.00;100023.34;4122441;28;20253;-50
2022/11/26 07:57:55;;;;;;;8.65;7.15;;;;;;;4.09;100.00;100034.53;4120025;28;20680;-49
2022/11/26 07:59:56;;;;;;;21.15;7.82;;;;;;;4.08;100.00;100032.81;4126285;28;20245;-48
2022/11/26 08:01:58;;;;;;;8.65;7.82;;;;;;;4.20;100.00;100030.63;4120716;28;20293;-49
2022/11/26 08:04:04;;;;;;;17.38;8.85;;;;;;;4.11;100.00;100034.34;4134789;28;20238;-49
2022/11/26 08:06:10;;;;;;;10.70;8.70;;;;;;;4.17;100.00;100044.50;4122562;28;20301;-50
2022/11/26 08:08:12;;;;;;;12.02;7.97;;;;;;;4.22;100.00;100045.69;4122673;28;20269;-48
2022/11/26 08:10:14;;;;;;;14.55;7.07;;;;;;;4.12;100.00;100039.59;4121274;28;20217;-49
2022/11/26 08:12:19;;;;;;;12.07;6.93;;;;;;;4.11;100.00;100037.06;4106140;28;20273;-49
2022/11/26 08:14:21;;;;;;;16.30;7.10;;;;;;;4.15;100.00;100033.81;4117568;28;20305;-48
2022/11/26 08:16:23;;;;;;;7.40;6.70;;;;;;;4.18;100.00;100030.78;4119676;28;20306;-49
2022/11/26 08:18:29;;;;;;;8.90;6.68;;;;;;;4.14;100.00;100037.56;4135760;28;20214;-48
2022/11/26 08:20:38;;;;;;;14.52;7.85;;;;;;;4.24;100.00;100040.94;4118526;28;20680;-46
2022/11/26 08:22:40;;;;;;;14.15;7.80;;;;;;;4.34;100.00;100041.56;4126094;28;20275;-46
2022/11/26 08:24:42;;;;;;;14.03;9.23;;;;;;;4.46;100.00;100042.06;4125596;28;20457;-46
2022/11/26 08:26:44;;;;;;;13.35;8.07;;;;;;;4.44;100.00;100034.09;4126700;28;20547;-46
2022/11/26 08:28:46;;;;;;;9.02;6.45;;;;;;;4.37;100.00;100043.09;4128667;28;20602;-46
2022/11/26 08:30:48;;;;;;;10.32;8.45;;;;;;;4.26;100.00;100040.78;4116523;28;20696;-46
2022/11/26 08:32:50;;;;;;;9.80;8.75;;;;;;;4.29;100.00;100041.28;4123256;28;20210;-46
2022/11/26 08:34:52;;;;;;;10.90;8.50;;;;;;;4.36;100.00;100052.25;4125926;28;20230;-45
2022/11/26 08:36:54;;;;;;;19.35;9.40;;;;;;;4.40;100.00;100057.13;4139218;28;20663;-46
2022/11/26 08:38:57;;;;;;;12.88;8.40;;;;;;;4.45;100.00;100051.19;4134493;28;20217;-46
2022/11/26 08:41:01;;;;;;;17.25;8.82;;;;;;;4.50;100.00;100059.66;4123764;28;20206;-46
2022/11/26 08:43:02;;;;;;;13.68;9.77;;;;;;;4.45;100.00;100052.06;4126605;28;20222;-46
2022/11/26 08:45:04;;;;;;;11.93;8.57;;;;;;;4.56;100.00;100057.09;4122825;28;20226;-47
2022/11/26 08:47:06;;;;;;;11.13;9.68;;;;;;;4.49;100.00;100060.69;4125679;28;20206;-47
2022/11/26 08:49:11;;;;;;;9.93;7.95;;;;;;;4.56;100.00;100054.41;4127666;28;20218;-46
2022/11/26 08:51:13;;;;;;;9.10;8.15;;;;;;;4.54;100.00;100056.41;4107993;28;20653;-46
2022/11/26 08:53:14;;;;;;;10.38;6.82;;;;;;;4.60;100.00;100055.72;4124188;28;20206;-46
2022/11/26 08:55:16;;;;;;;10.35;7.43;;;;;;;4.63;100.00;100049.09;4120346;28;20329;-46
2022/11/26 08:57:24;;;;;;;11.00;7.43;;;;;;;4.66;100.00;100055.03;4125671;28;20331;-46
2022/11/26 08:59:26;;;;;;;8.75;6.13;;;;;;;4.69;100.00;100060.13;4109522;28;20289;-46
2022/11/26 09:01:31;;;;;;;10.20;7.88;;;;;;;4.77;100.00;100062.78;4115008;28;20230;-46
2022/11/26 09:03:33;;;;;;;9.73;6.40;;;;;;;4.82;100.00;100065.84;4124066;28;20672;-47
2022/11/26 09:05:35;;;;;;;10.02;6.43;;;;;;;4.81;100.00;100061.41;4125805;28;20261;-45
2022/11/26 09:07:36;;;;;;;13.82;6.78;;;;;;;4.83;100.00;100062.09;4137677;28;20248;-45
2022/11/26 09:09:38;;;;;;;14.43;6.65;;;;;;;4.98;100.00;100068.47;4122450;28;20276;-47
2022/11/26 09:11:48;;;;;;;11.90;8.18;;;;;;;4.92;100.00;100055.59;4121993;28;20708;-47
2022/11/26 09:13:50;;;;;;;9.93;8.82;;;;;;;4.97;100.00;100053.22;4125798;28;20216;-45
2022/11/26 09:15:51;;;;;;;9.10;8.00;;;;;;;5.00;100.00;100063.69;4118387;28;20337;-45
2022/11/26 09:17:53;;;;;;;10.43;7.30;;;;;;;5.06;100.00;100062.97;4122623;28;20739;-44
2022/11/26 09:19:56;;;;;;;8.88;7.05;;;;;;;5.11;100.00;100060.59;4123177;28;20302;-45
2022/11/26 09:21:58;;;;;;;20.65;7.68;;;;;;;5.15;100.00;100057.34;4124356;28;20305;-45
2022/11/26 09:24:00;;;;;;;11.60;9.38;;;;;;;5.16;100.00;100050.88;4120421;28;20328;-45
2022/11/26 09:26:02;;;;;;;9.77;7.43;;;;;;;5.22;100.00;100049.34;4124207;28;20258;-45
2022/11/26 09:28:04;;;;;;;8.77;6.95;;;;;;;5.30;100.00;100054.72;4137043;28;20752;-45
2022/11/26 09:30:07;;;;;;;7.30;6.53;;;;;;;5.32;100.00;100048.09;4103959;28;20705;-45
2022/11/26 09:32:09;;;;;;;8.32;6.10;;;;;;;5.29;100.00;100053.88;4121557;28;20648;-45
2022/11/26 09:34:31;;;;;;;8.95;6.25;;;;;;;5.34;100.00;100056.91;4121734;28;20238;-44
2022/11/26 09:36:32;;;;;;;7.25;5.95;;;;;;;5.41;100.00;100055.16;4120058;28;20244;-44
2022/11/26 09:38:35;;;;;;;11.27;6.45;;;;;;;5.52;100.00;100051.16;4122408;28;20238;-45